sensor_id;sensor_type;location;lat;lon;timestamp;pressure;altitude;pressure_sealevel;temperature;humidity
16030;BME280;34770;49.272;11.070;2022-08-01T00:01:46;97551.69;;;20.27;62.69
16030;BME280;34770;49.272;11.070;2022-08-01T00:04:11;97548.53;;;20.21;62.57
16030;BME280;34770;49.272;11.070;2022-08-01T00:06:36;97548.59;;;20.17;63.14
16030;BME280;34770;49.272;11.070;2022-08-01T00:09:02;97541.81;;;20.11;63.13
16030;BME280;34770;49.272;11.070;2022-08-01T00:11:27;97555.00;;;20.21;63.13
16030;BME280;34770;49.272;11.070;2022-08-01T00:13:53;97549.63;;;20.31;62.55
16030;BME280;34770;49.272;11.070;2022-08-01T00:16:19;97553.25;;;20.31;61.98
16030;BME280;34770;49.272;11.070;2022-08-01T00:18:44;97547.31;;;20.22;61.88
16030;BME280;34770;49.272;11.070;2022-08-01T00:21:10;97551.31;;;20.24;61.79
16030;BME280;34770;49.272;11.070;2022-08-01T00:23:35;97558.13;;;20.31;61.64
16030;BME280;34770;49.272;11.070;2022-08-01T00:26:00;97539.00;;;20.11;61.77
16030;BME280;34770;49.272;11.070;2022-08-01T00:28:27;97548.53;;;20.21;61.62
16030;BME280;34770;49.272;11.070;2022-08-01T00:30:52;97557.25;;;20.34;61.71
16030;BME280;34770;49.272;11.070;2022-08-01T00:33:17;97546.38;;;20.32;61.44
16030;BME280;34770;49.272;11.070;2022-08-01T00:35:43;97550.84;;;20.30;61.77
16030;BME280;34770;49.272;11.070;2022-08-01T00:38:08;97558.16;;;20.27;61.74
16030;BME280;34770;49.272;11.070;2022-08-01T00:40:34;97565.50;;;20.21;61.95
16030;BME280;34770;49.272;11.070;2022-08-01T00:42:59;97550.69;;;20.13;61.88
16030;BME280;34770;49.272;11.070;2022-08-01T00:45:25;97554.09;;;20.28;61.26
16030;BME280;34770;49.272;11.070;2022-08-01T00:47:51;97551.41;;;20.17;61.95
16030;BME280;34770;49.272;11.070;2022-08-01T00:50:16;97550.09;;;20.25;61.77
16030;BME280;34770;49.272;11.070;2022-08-01T00:52:43;97568.16;;;20.32;61.20
16030;BME280;34770;49.272;11.070;2022-08-01T00:55:10;97568.72;;;20.23;61.71
16030;BME280;34770;49.272;11.070;2022-08-01T00:57:37;97572.69;;;20.25;61.93
16030;BME280;34770;49.272;11.070;2022-08-01T01:00:05;97561.84;;;20.24;61.65
16030;BME280;34770;49.272;11.070;2022-08-01T01:02:31;97567.47;;;20.24;61.72
16030;BME280;34770;49.272;11.070;2022-08-01T01:04:57;97574.34;;;20.23;62.05
16030;BME280;34770;49.272;11.070;2022-08-01T01:07:40;97566.41;;;20.14;61.93
16030;BME280;34770;49.272;11.070;2022-08-01T01:10:17;97570.13;;;20.07;62.09
16030;BME280;34770;49.272;11.070;2022-08-01T01:13:05;97581.56;;;19.97;62.78
16030;BME280;34770;49.272;11.070;2022-08-01T01:15:47;97583.84;;;19.74;63.20
16030;BME280;34770;49.272;11.070;2022-08-01T01:18:20;97573.28;;;19.82;63.20
16030;BME280;34770;49.272;11.070;2022-08-01T01:27:01;97578.72;;;19.66;63.82
16030;BME280;34770;49.272;11.070;2022-08-01T01:29:36;97581.94;;;19.68;63.94
16030;BME280;34770;49.272;11.070;2022-08-01T01:32:04;97577.97;;;19.58;64.36
16030;BME280;34770;49.272;11.070;2022-08-01T01:34:35;97586.97;;;19.49;64.10
16030;BME280;34770;49.272;11.070;2022-08-01T01:37:02;97582.22;;;19.42;64.65
16030;BME280;34770;49.272;11.070;2022-08-01T01:39:30;97578.41;;;19.56;64.40
16030;BME280;34770;49.272;11.070;2022-08-01T01:41:58;97590.09;;;19.58;64.35
16030;BME280;34770;49.272;11.070;2022-08-01T01:44:25;97587.69;;;19.57;64.30
16030;BME280;34770;49.272;11.070;2022-08-01T01:46:53;97590.63;;;19.46;64.80
16030;BME280;34770;49.272;11.070;2022-08-01T01:49:24;97586.28;;;19.38;65.02
16030;BME280;34770;49.272;11.070;2022-08-01T01:51:53;97560.00;;;19.06;65.65
16030;BME280;34770;49.272;11.070;2022-08-01T01:54:20;97575.22;;;19.16;66.13
16030;BME280;34770;49.272;11.070;2022-08-01T01:56:47;97589.84;;;19.42;65.45
16030;BME280;34770;49.272;11.070;2022-08-01T01:59:20;97595.97;;;19.37;65.83
16030;BME280;34770;49.272;11.070;2022-08-01T02:01:51;97587.16;;;19.31;65.59
16030;BME280;34770;49.272;11.070;2022-08-01T02:04:19;97602.31;;;19.44;65.19
16030;BME280;34770;49.272;11.070;2022-08-01T02:06:46;97610.03;;;19.40;65.49
16030;BME280;34770;49.272;11.070;2022-08-01T02:09:16;97607.22;;;19.40;65.57
16030;BME280;34770;49.272;11.070;2022-08-01T02:11:44;97604.78;;;19.42;65.08
16030;BME280;34770;49.272;11.070;2022-08-01T02:14:11;97611.25;;;19.39;65.43
16030;BME280;34770;49.272;11.070;2022-08-01T02:16:39;97611.56;;;19.49;65.18
16030;BME280;34770;49.272;11.070;2022-08-01T02:19:06;97610.81;;;19.41;65.32
16030;BME280;34770;49.272;11.070;2022-08-01T02:24:10;97622.50;;;19.43;65.61
16030;BME280;34770;49.272;11.070;2022-08-01T02:26:39;97626.94;;;19.44;65.62
16030;BME280;34770;49.272;11.070;2022-08-01T02:29:09;97624.84;;;19.48;65.95
16030;BME280;34770;49.272;11.070;2022-08-01T02:31:39;97624.56;;;19.39;66.33
16030;BME280;34770;49.272;11.070;2022-08-01T02:34:06;97628.53;;;19.45;66.00
16030;BME280;34770;49.272;11.070;2022-08-01T02:36:35;97627.34;;;19.42;66.31
16030;BME280;34770;49.272;11.070;2022-08-01T02:39:04;97628.97;;;19.43;66.05
16030;BME280;34770;49.272;11.070;2022-08-01T02:41:33;97630.50;;;19.48;66.52
16030;BME280;34770;49.272;11.070;2022-08-01T02:44:03;97630.16;;;19.46;66.77
16030;BME280;34770;49.272;11.070;2022-08-01T02:46:46;97627.81;;;19.34;67.30
16030;BME280;34770;49.272;11.070;2022-08-01T02:49:14;97610.22;;;19.22;67.03
16030;BME280;34770;49.272;11.070;2022-08-01T02:51:43;97624.19;;;19.37;67.39
16030;BME280;34770;49.272;11.070;2022-08-01T02:54:10;97637.94;;;19.31;68.20
16030;BME280;34770;49.272;11.070;2022-08-01T02:56:37;97637.53;;;19.33;68.34
16030;BME280;34770;49.272;11.070;2022-08-01T02:59:13;97639.41;;;19.05;69.08
16030;BME280;34770;49.272;11.070;2022-08-01T03:01:42;97632.19;;;19.00;70.10
16030;BME280;34770;49.272;11.070;2022-08-01T03:04:09;97622.50;;;19.01;69.97
16030;BME280;34770;49.272;11.070;2022-08-01T03:06:36;97633.75;;;19.05;70.41
16030;BME280;34770;49.272;11.070;2022-08-01T03:09:03;97645.53;;;18.85;71.49
16030;BME280;34770;49.272;11.070;2022-08-01T03:11:31;97637.84;;;18.96;71.41
16030;BME280;34770;49.272;11.070;2022-08-01T03:14:00;97637.06;;;18.92;71.76
16030;BME280;34770;49.272;11.070;2022-08-01T03:16:28;97628.78;;;18.71;72.29
16030;BME280;34770;49.272;11.070;2022-08-01T03:18:54;97646.38;;;18.82;72.74
16030;BME280;34770;49.272;11.070;2022-08-01T03:21:23;97645.19;;;18.83;73.04
16030;BME280;34770;49.272;11.070;2022-08-01T03:23:50;97642.72;;;18.85;73.05
16030;BME280;34770;49.272;11.070;2022-08-01T03:26:17;97650.06;;;18.75;73.80
16030;BME280;34770;49.272;11.070;2022-08-01T03:28:46;97649.25;;;18.75;73.75
16030;BME280;34770;49.272;11.070;2022-08-01T03:31:12;97653.38;;;18.63;74.66
16030;BME280;34770;49.272;11.070;2022-08-01T03:33:39;97644.59;;;18.50;75.06
16030;BME280;34770;49.272;11.070;2022-08-01T03:36:08;97649.38;;;18.57;75.00
16030;BME280;34770;49.272;11.070;2022-08-01T03:38:37;97647.03;;;18.48;75.51
16030;BME280;34770;49.272;11.070;2022-08-01T03:41:18;97653.09;;;18.46;75.75
16030;BME280;34770;49.272;11.070;2022-08-01T03:43:56;97663.94;;;18.48;75.45
16030;BME280;34770;49.272;11.070;2022-08-01T03:46:28;97658.31;;;18.48;75.48
16030;BME280;34770;49.272;11.070;2022-08-01T03:48:55;97661.19;;;18.37;75.97
16030;BME280;34770;49.272;11.070;2022-08-01T03:51:24;97667.19;;;18.43;75.67
16030;BME280;34770;49.272;11.070;2022-08-01T03:53:51;97665.88;;;18.55;74.73
16030;BME280;34770;49.272;11.070;2022-08-01T03:56:18;97663.13;;;18.44;75.44
16030;BME280;34770;49.272;11.070;2022-08-01T03:58:45;97662.38;;;18.40;75.15
16030;BME280;34770;49.272;11.070;2022-08-01T04:01:11;97675.28;;;18.33;76.02
16030;BME280;34770;49.272;11.070;2022-08-01T04:03:37;97647.28;;;17.97;76.34
16030;BME280;34770;49.272;11.070;2022-08-01T04:06:06;97685.81;;;18.22;76.30
16030;BME280;34770;49.272;11.070;2022-08-01T04:08:42;97679.81;;;18.09;77.45
16030;BME280;34770;49.272;11.070;2022-08-01T04:11:08;97680.97;;;18.19;77.18
16030;BME280;34770;49.272;11.070;2022-08-01T04:13:34;97691.03;;;18.24;76.84
16030;BME280;34770;49.272;11.070;2022-08-01T04:16:00;97682.94;;;18.26;77.29
16030;BME280;34770;49.272;11.070;2022-08-01T04:18:25;97691.03;;;18.24;77.38
16030;BME280;34770;49.272;11.070;2022-08-01T04:20:51;97697.88;;;18.19;77.82
16030;BME280;34770;49.272;11.070;2022-08-01T04:23:20;97693.06;;;18.12;78.45
16030;BME280;34770;49.272;11.070;2022-08-01T04:25:47;97692.16;;;18.41;77.25
16030;BME280;34770;49.272;11.070;2022-08-01T04:28:15;97700.97;;;18.46;77.44
16030;BME280;34770;49.272;11.070;2022-08-01T04:30:44;97700.97;;;18.50;77.48
16030;BME280;34770;49.272;11.070;2022-08-01T04:33:13;97704.97;;;18.56;77.43
16030;BME280;34770;49.272;11.070;2022-08-01T04:35:43;97704.16;;;18.52;77.79
16030;BME280;34770;49.272;11.070;2022-08-01T04:38:11;97696.03;;;18.69;77.18
16030;BME280;34770;49.272;11.070;2022-08-01T04:40:41;97687.88;;;18.78;77.53
16030;BME280;34770;49.272;11.070;2022-08-01T04:43:07;97710.44;;;18.78;77.67
16030;BME280;34770;49.272;11.070;2022-08-01T04:45:34;97698.03;;;18.64;78.06
16030;BME280;34770;49.272;11.070;2022-08-01T04:48:00;97699.97;;;18.82;77.44
16030;BME280;34770;49.272;11.070;2022-08-01T04:50:26;97705.66;;;18.71;78.38
16030;BME280;34770;49.272;11.070;2022-08-01T04:52:51;97709.63;;;18.81;77.93
16030;BME280;34770;49.272;11.070;2022-08-01T04:55:17;97689.88;;;18.85;77.69
16030;BME280;34770;49.272;11.070;2022-08-01T04:57:44;97719.59;;;19.00;77.40
16030;BME280;34770;49.272;11.070;2022-08-01T05:00:10;97715.97;;;19.00;77.55
16030;BME280;34770;49.272;11.070;2022-08-01T05:02:36;97720.75;;;19.06;77.11
16030;BME280;34770;49.272;11.070;2022-08-01T05:05:02;97711.94;;;19.01;77.35
16030;BME280;34770;49.272;11.070;2022-08-01T05:07:28;97692.72;;;18.81;78.05
16030;BME280;34770;49.272;11.070;2022-08-01T05:09:53;97728.03;;;19.04;77.41
16030;BME280;34770;49.272;11.070;2022-08-01T05:12:18;97727.22;;;19.03;77.95
16030;BME280;34770;49.272;11.070;2022-08-01T05:14:44;97730.31;;;19.23;77.05
16030;BME280;34770;49.272;11.070;2022-08-01T05:17:10;97733.53;;;19.25;76.77
16030;BME280;34770;49.272;11.070;2022-08-01T05:19:37;97741.53;;;19.31;76.59
16030;BME280;34770;49.272;11.070;2022-08-01T05:22:05;97738.69;;;19.34;76.51
16030;BME280;34770;49.272;11.070;2022-08-01T05:24:32;97727.81;;;19.33;76.29
16030;BME280;34770;49.272;11.070;2022-08-01T05:26:59;97727.81;;;19.33;76.55
16030;BME280;34770;49.272;11.070;2022-08-01T05:29:25;97731.78;;;19.39;75.67
16030;BME280;34770;49.272;11.070;2022-08-01T05:31:51;97740.16;;;19.50;75.28
16030;BME280;34770;49.272;11.070;2022-08-01T05:34:16;97734.03;;;19.58;74.68
16030;BME280;34770;49.272;11.070;2022-08-01T05:36:42;97738.06;;;19.57;75.31
16030;BME280;34770;49.272;11.070;2022-08-01T05:39:07;97736.47;;;19.56;75.10
16030;BME280;34770;49.272;11.070;2022-08-01T05:41:33;97711.63;;;19.40;75.20
16030;BME280;34770;49.272;11.070;2022-08-01T05:43:59;97708.22;;;19.60;74.96
16030;BME280;34770;49.272;11.070;2022-08-01T05:46:25;97730.69;;;19.71;74.40
16030;BME280;34770;49.272;11.070;2022-08-01T05:48:50;97742.69;;;19.82;74.67
16030;BME280;34770;49.272;11.070;2022-08-01T05:51:16;97745.94;;;19.77;74.59
16030;BME280;34770;49.272;11.070;2022-08-01T05:53:41;97747.84;;;19.95;74.31
16030;BME280;34770;49.272;11.070;2022-08-01T05:56:07;97737.81;;;20.24;73.34
16030;BME280;34770;49.272;11.070;2022-08-01T05:58:32;97729.53;;;20.41;72.64
16030;BME280;34770;49.272;11.070;2022-08-01T06:00:58;97736.78;;;20.42;72.92
16030;BME280;34770;49.272;11.070;2022-08-01T06:03:23;97732.75;;;20.43;72.79
16030;BME280;34770;49.272;11.070;2022-08-01T06:05:50;97733.06;;;20.49;72.69
16030;BME280;34770;49.272;11.070;2022-08-01T06:08:16;97744.19;;;20.63;72.82
16030;BME280;34770;49.272;11.070;2022-08-01T06:10:41;97747.72;;;20.75;72.38
16030;BME280;34770;49.272;11.070;2022-08-01T06:13:06;97739.34;;;20.95;71.85
16030;BME280;34770;49.272;11.070;2022-08-01T06:15:32;97754.66;;;21.25;71.36
16030;BME280;34770;49.272;11.070;2022-08-01T06:17:57;97737.16;;;21.06;72.36
16030;BME280;34770;49.272;11.070;2022-08-01T06:20:23;97744.31;;;21.14;72.38
16030;BME280;34770;49.272;11.070;2022-08-01T06:22:48;97758.97;;;21.06;72.77
16030;BME280;34770;49.272;11.070;2022-08-01T06:25:14;97735.56;;;21.05;72.97
16030;BME280;34770;49.272;11.070;2022-08-01T06:27:39;97753.75;;;21.31;72.22
16030;BME280;34770;49.272;11.070;2022-08-01T06:30:05;97749.31;;;21.54;71.34
16030;BME280;34770;49.272;11.070;2022-08-01T06:32:32;97748.44;;;21.61;71.50
16030;BME280;34770;49.272;11.070;2022-08-01T06:34:58;97745.16;;;21.62;71.38
16030;BME280;34770;49.272;11.070;2022-08-01T06:37:23;97750.84;;;21.62;71.84
16030;BME280;34770;49.272;11.070;2022-08-01T06:39:49;97758.75;;;21.71;71.70
16030;BME280;34770;49.272;11.070;2022-08-01T06:42:14;97740.53;;;21.96;71.19
16030;BME280;34770;49.272;11.070;2022-08-01T06:44:40;97757.19;;;22.34;69.76
16030;BME280;34770;49.272;11.070;2022-08-01T06:47:06;97753.00;;;22.42;68.95
16030;BME280;34770;49.272;11.070;2022-08-01T06:49:32;97755.59;;;22.33;69.42
16030;BME280;34770;49.272;11.070;2022-08-01T06:51:57;97747.19;;;22.50;68.69
16030;BME280;34770;49.272;11.070;2022-08-01T06:54:23;97755.53;;;22.57;68.47
16030;BME280;34770;49.272;11.070;2022-08-01T06:56:48;97752.75;;;22.33;68.49
16030;BME280;34770;49.272;11.070;2022-08-01T06:59:13;97757.53;;;22.40;69.00
16030;BME280;34770;49.272;11.070;2022-08-01T07:01:39;97747.63;;;22.48;68.81
16030;BME280;34770;49.272;11.070;2022-08-01T07:04:04;97729.09;;;22.43;68.60
16030;BME280;34770;49.272;11.070;2022-08-01T07:06:30;97762.66;;;22.45;68.92
16030;BME280;34770;49.272;11.070;2022-08-01T07:08:55;97763.00;;;22.27;69.13
16030;BME280;34770;49.272;11.070;2022-08-01T07:11:23;97755.69;;;22.50;69.21
16030;BME280;34770;49.272;11.070;2022-08-01T07:13:48;97755.78;;;22.83;68.42
16030;BME280;34770;49.272;11.070;2022-08-01T07:16:15;97762.44;;;22.56;68.36
16030;BME280;34770;49.272;11.070;2022-08-01T07:18:41;97759.69;;;22.72;68.09
16030;BME280;34770;49.272;11.070;2022-08-01T07:21:06;97757.94;;;22.58;68.54
16030;BME280;34770;49.272;11.070;2022-08-01T07:23:32;97747.97;;;22.70;67.88
16030;BME280;34770;49.272;11.070;2022-08-01T07:25:57;97754.41;;;22.91;67.58
16030;BME280;34770;49.272;11.070;2022-08-01T07:28:24;97747.44;;;22.75;67.37
16030;BME280;34770;49.272;11.070;2022-08-01T07:30:49;97752.19;;;22.82;67.51
16030;BME280;34770;49.272;11.070;2022-08-01T07:33:15;97765.69;;;22.74;67.51
16030;BME280;34770;49.272;11.070;2022-08-01T07:35:41;97768.91;;;22.76;67.60
16030;BME280;34770;49.272;11.070;2022-08-01T07:38:07;97758.44;;;23.10;67.75
16030;BME280;34770;49.272;11.070;2022-08-01T07:40:33;97755.75;;;23.39;65.88
16030;BME280;34770;49.272;11.070;2022-08-01T07:42:58;97768.53;;;23.64;65.17
16030;BME280;34770;49.272;11.070;2022-08-01T07:45:24;97752.72;;;23.63;64.55
16030;BME280;34770;49.272;11.070;2022-08-01T07:47:49;97763.31;;;23.46;65.14
16030;BME280;34770;49.272;11.070;2022-08-01T07:50:15;97741.31;;;23.14;66.42
16030;BME280;34770;49.272;11.070;2022-08-01T07:52:41;97758.22;;;23.21;66.48
16030;BME280;34770;49.272;11.070;2022-08-01T07:55:08;97753.81;;;23.36;66.65
16030;BME280;34770;49.272;11.070;2022-08-01T07:57:34;97750.44;;;23.41;65.65
16030;BME280;34770;49.272;11.070;2022-08-01T08:00:00;97752.25;;;23.98;64.77
16030;BME280;34770;49.272;11.070;2022-08-01T08:02:25;97743.63;;;24.60;62.42
16030;BME280;34770;49.272;11.070;2022-08-01T08:04:51;97744.59;;;24.83;61.00
16030;BME280;34770;49.272;11.070;2022-08-01T08:07:16;97748.47;;;24.89;59.86
16030;BME280;34770;49.272;11.070;2022-08-01T08:09:41;97746.53;;;24.86;60.94
16030;BME280;34770;49.272;11.070;2022-08-01T08:12:07;97748.84;;;24.62;60.75
16030;BME280;34770;49.272;11.070;2022-08-01T08:14:32;97744.81;;;24.33;61.48
16030;BME280;34770;49.272;11.070;2022-08-01T08:16:59;97750.38;;;24.08;62.07
16030;BME280;34770;49.272;11.070;2022-08-01T08:19:24;97744.78;;;24.04;62.25
16030;BME280;34770;49.272;11.070;2022-08-01T08:21:49;97745.22;;;24.02;61.75
16030;BME280;34770;49.272;11.070;2022-08-01T08:24:15;97745.59;;;23.88;62.10
16030;BME280;34770;49.272;11.070;2022-08-01T08:26:52;97755.16;;;24.11;61.33
16030;BME280;34770;49.272;11.070;2022-08-01T08:29:19;97742.69;;;24.21;61.33
16030;BME280;34770;49.272;11.070;2022-08-01T08:31:44;97746.25;;;24.25;61.33
16030;BME280;34770;49.272;11.070;2022-08-01T08:34:10;97751.91;;;24.54;61.06
16030;BME280;34770;49.272;11.070;2022-08-01T08:36:36;97753.84;;;24.15;61.90
16030;BME280;34770;49.272;11.070;2022-08-01T08:39:01;97747.00;;;24.13;62.42
16030;BME280;34770;49.272;11.070;2022-08-01T08:41:28;97748.06;;;24.32;62.25
16030;BME280;34770;49.272;11.070;2022-08-01T08:43:54;97740.00;;;24.30;61.77
16030;BME280;34770;49.272;11.070;2022-08-01T08:46:20;97757.09;;;24.14;61.45
16030;BME280;34770;49.272;11.070;2022-08-01T08:48:45;97733.13;;;24.15;60.63
16030;BME280;34770;49.272;11.070;2022-08-01T08:51:12;97734.13;;;24.08;60.38
16030;BME280;34770;49.272;11.070;2022-08-01T08:53:40;97760.25;;;24.32;60.95
16030;BME280;34770;49.272;11.070;2022-08-01T08:56:10;97762.66;;;24.34;59.98
16030;BME280;34770;49.272;11.070;2022-08-01T08:58:37;97755.75;;;24.18;59.88
16030;BME280;34770;49.272;11.070;2022-08-01T09:01:06;97761.72;;;24.24;59.84
16030;BME280;34770;49.272;11.070;2022-08-01T09:03:34;97757.81;;;24.90;59.00
16030;BME280;34770;49.272;11.070;2022-08-01T09:06:00;97750.19;;;24.99;57.54
16030;BME280;34770;49.272;11.070;2022-08-01T09:08:25;97751.44;;;25.11;56.78
16030;BME280;34770;49.272;11.070;2022-08-01T09:10:51;97749.72;;;24.88;57.81
16030;BME280;34770;49.272;11.070;2022-08-01T09:13:16;97756.59;;;25.42;56.55
16030;BME280;34770;49.272;11.070;2022-08-01T09:15:53;97744.59;;;24.96;56.19
16030;BME280;34770;49.272;11.070;2022-08-01T09:18:33;97762.81;;;24.85;56.82
16030;BME280;34770;49.272;11.070;2022-08-01T09:21:12;97761.91;;;25.14;55.31
16030;BME280;34770;49.272;11.070;2022-08-01T09:23:42;97754.28;;;25.37;55.59
16030;BME280;34770;49.272;11.070;2022-08-01T09:26:12;97758.81;;;25.73;53.56
16030;BME280;34770;49.272;11.070;2022-08-01T09:28:38;97732.38;;;26.43;52.87
16030;BME280;34770;49.272;11.070;2022-08-01T09:31:12;97765.75;;;26.55;52.44
16030;BME280;34770;49.272;11.070;2022-08-01T09:36:16;97758.19;;;25.56;53.60
16030;BME280;34770;49.272;11.070;2022-08-01T09:38:41;97760.00;;;25.24;54.49
16030;BME280;34770;49.272;11.070;2022-08-01T09:41:07;97754.88;;;25.06;54.88
16030;BME280;34770;49.272;11.070;2022-08-01T09:43:33;97742.78;;;26.02;52.83
16030;BME280;34770;49.272;11.070;2022-08-01T09:46:11;97716.16;;;26.62;49.79
16030;BME280;34770;49.272;11.070;2022-08-01T09:48:37;97750.53;;;26.58;49.58
16030;BME280;34770;49.272;11.070;2022-08-01T09:51:05;97746.56;;;26.34;48.96
16030;BME280;34770;49.272;11.070;2022-08-01T09:53:47;97758.44;;;25.97;50.76
16030;BME280;34770;49.272;11.070;2022-08-01T09:56:13;97747.16;;;25.93;49.29
16030;BME280;34770;49.272;11.070;2022-08-01T10:01:21;97752.19;;;26.69;47.10
16030;BME280;34770;49.272;11.070;2022-08-01T10:04:07;97726.06;;;27.02;46.72
16030;BME280;34770;49.272;11.070;2022-08-01T10:06:33;97721.22;;;27.52;45.23
16030;BME280;34770;49.272;11.070;2022-08-01T10:08:58;97733.31;;;27.25;45.01
16030;BME280;34770;49.272;11.070;2022-08-01T10:11:24;97743.28;;;26.89;46.70
16030;BME280;34770;49.272;11.070;2022-08-01T10:13:49;97731.75;;;25.91;48.74
16030;BME280;34770;49.272;11.070;2022-08-01T10:16:15;97743.88;;;25.82;50.32
16030;BME280;34770;49.272;11.070;2022-08-01T10:18:41;97741.25;;;26.45;48.45
16030;BME280;34770;49.272;11.070;2022-08-01T10:21:08;97702.25;;;26.42;47.02
16030;BME280;34770;49.272;11.070;2022-08-01T10:23:35;97745.56;;;26.50;46.91
16030;BME280;34770;49.272;11.070;2022-08-01T10:26:02;97732.69;;;26.45;46.71
16030;BME280;34770;49.272;11.070;2022-08-01T10:28:30;97718.91;;;27.38;47.13
16030;BME280;34770;49.272;11.070;2022-08-01T10:30:59;97723.97;;;27.84;43.70
16030;BME280;34770;49.272;11.070;2022-08-01T10:33:25;97720.44;;;27.70;44.63
16030;BME280;34770;49.272;11.070;2022-08-01T10:35:51;97724.81;;;27.03;45.61
16030;BME280;34770;49.272;11.070;2022-08-01T10:38:17;97731.56;;;26.87;46.69
16030;BME280;34770;49.272;11.070;2022-08-01T10:40:43;97739.66;;;26.22;47.24
16030;BME280;34770;49.272;11.070;2022-08-01T10:43:13;97732.84;;;26.06;46.08
16030;BME280;34770;49.272;11.070;2022-08-01T10:45:42;97717.31;;;26.96;45.41
16030;BME280;34770;49.272;11.070;2022-08-01T10:48:27;97730.09;;;27.14;46.07
16030;BME280;34770;49.272;11.070;2022-08-01T10:50:58;97734.41;;;27.18;47.33
16030;BME280;34770;49.272;11.070;2022-08-01T10:53:26;97704.94;;;27.31;46.15
16030;BME280;34770;49.272;11.070;2022-08-01T10:56:01;97732.81;;;27.27;46.09
16030;BME280;34770;49.272;11.070;2022-08-01T10:58:28;97731.41;;;26.68;48.46
16030;BME280;34770;49.272;11.070;2022-08-01T11:01:32;97735.34;;;26.17;49.21
16030;BME280;34770;49.272;11.070;2022-08-01T11:14:23;97735.88;;;27.32;45.54
16030;BME280;34770;49.272;11.070;2022-08-01T11:16:49;97732.22;;;26.91;45.48
16030;BME280;34770;49.272;11.070;2022-08-01T11:19:14;97724.09;;;27.71;45.17
16030;BME280;34770;49.272;11.070;2022-08-01T11:27:26;97706.38;;;28.23;41.73
16030;BME280;34770;49.272;11.070;2022-08-01T11:32:50;97698.22;;;29.10;40.70
16030;BME280;34770;49.272;11.070;2022-08-01T11:35:16;97704.84;;;29.26;39.88
16030;BME280;34770;49.272;11.070;2022-08-01T11:37:42;97695.53;;;29.07;41.14
16030;BME280;34770;49.272;11.070;2022-08-01T11:40:22;97710.84;;;29.37;40.58
16030;BME280;34770;49.272;11.070;2022-08-01T11:43:34;97704.38;;;28.85;40.32
16030;BME280;34770;49.272;11.070;2022-08-01T11:45:49;97683.28;;;29.40;40.19
16030;BME280;34770;49.272;11.070;2022-08-01T11:48:25;97700.69;;;29.27;39.79
16030;BME280;34770;49.272;11.070;2022-08-01T11:50:52;97699.81;;;29.11;40.04
16030;BME280;34770;49.272;11.070;2022-08-01T11:53:18;97701.75;;;29.63;38.73
16030;BME280;34770;49.272;11.070;2022-08-01T11:55:52;97688.28;;;29.30;39.51
16030;BME280;34770;49.272;11.070;2022-08-01T11:58:23;97695.72;;;29.37;39.52
16030;BME280;34770;49.272;11.070;2022-08-01T12:00:53;97690.81;;;29.28;39.72
16030;BME280;34770;49.272;11.070;2022-08-01T12:03:24;97703.69;;;29.33;39.33
16030;BME280;34770;49.272;11.070;2022-08-01T12:05:52;97691.09;;;29.39;39.35
16030;BME280;34770;49.272;11.070;2022-08-01T12:08:28;97686.09;;;29.16;39.12
16030;BME280;34770;49.272;11.070;2022-08-01T12:10:54;97690.38;;;29.20;39.66
16030;BME280;34770;49.272;11.070;2022-08-01T12:13:20;97673.84;;;29.49;38.19
16030;BME280;34770;49.272;11.070;2022-08-01T12:15:46;97686.13;;;29.88;37.87
16030;BME280;34770;49.272;11.070;2022-08-01T12:18:12;97667.19;;;29.42;38.68
16030;BME280;34770;49.272;11.070;2022-08-01T12:20:41;97668.47;;;29.41;38.41
16030;BME280;34770;49.272;11.070;2022-08-01T12:23:09;97679.91;;;28.65;40.40
16030;BME280;34770;49.272;11.070;2022-08-01T12:25:36;97674.84;;;28.50;41.17
16030;BME280;34770;49.272;11.070;2022-08-01T12:28:06;97670.63;;;28.89;39.96
16030;BME280;34770;49.272;11.070;2022-08-01T12:30:33;97677.88;;;28.38;41.37
16030;BME280;34770;49.272;11.070;2022-08-01T12:33:03;97665.03;;;28.94;40.54
16030;BME280;34770;49.272;11.070;2022-08-01T12:35:29;97661.59;;;29.48;38.06
16030;BME280;34770;49.272;11.070;2022-08-01T12:37:57;97665.75;;;29.13;38.55
16030;BME280;34770;49.272;11.070;2022-08-01T12:40:26;97671.41;;;29.32;38.08
16030;BME280;34770;49.272;11.070;2022-08-01T12:42:54;97669.13;;;28.50;39.65
16030;BME280;34770;49.272;11.070;2022-08-01T12:45:23;97662.81;;;28.00;41.36
16030;BME280;34770;49.272;11.070;2022-08-01T12:47:51;97669.47;;;28.95;39.34
16030;BME280;34770;49.272;11.070;2022-08-01T12:50:20;97662.16;;;28.94;38.48
16030;BME280;34770;49.272;11.070;2022-08-01T12:52:47;97658.81;;;29.78;37.34
16030;BME280;34770;49.272;11.070;2022-08-01T12:57:40;97661.06;;;29.74;37.40
16030;BME280;34770;49.272;11.070;2022-08-01T13:00:07;97653.78;;;29.97;37.79
16030;BME280;34770;49.272;11.070;2022-08-01T13:02:34;97665.91;;;29.43;38.12
16030;BME280;34770;49.272;11.070;2022-08-01T13:04:59;97658.66;;;29.24;38.15
16030;BME280;34770;49.272;11.070;2022-08-01T13:07:38;97658.47;;;29.03;38.90
16030;BME280;34770;49.272;11.070;2022-08-01T13:10:05;97662.78;;;29.32;38.39
16030;BME280;34770;49.272;11.070;2022-08-01T13:12:30;97659.44;;;28.48;39.79
16030;BME280;34770;49.272;11.070;2022-08-01T13:14:56;97656.88;;;28.69;39.40
16030;BME280;34770;49.272;11.070;2022-08-01T13:17:32;97664.88;;;28.18;40.45
16030;BME280;34770;49.272;11.070;2022-08-01T13:19:58;97644.69;;;28.12;40.82
16030;BME280;34770;49.272;11.070;2022-08-01T13:22:33;97655.19;;;27.78;41.87
16030;BME280;34770;49.272;11.070;2022-08-01T13:25:13;97660.09;;;27.96;41.84
16030;BME280;34770;49.272;11.070;2022-08-01T13:27:39;97630.72;;;27.86;41.21
16030;BME280;34770;49.272;11.070;2022-08-01T13:30:15;97653.25;;;28.03;41.82